Аэропорт: Нальчик. Нальчик

ICAO: URMN

METAR:
2020-06-01 02:00:00
URMN 010200Z 20002MPS 9999 SCT/// 15/12 Q1013 R24/////// NOSIG RMK QFE723
METAR:
2020-05-31 23:00:00
TAF URMN 312300Z 0100/0109 24003MPS 9999 SCT020